Time;durP1;ratioP1;P1;durP2;ratioP2;P2;SDS_P1;SDS_P2;PMS_P1;PMS_P2;Temp;Humidity;BMP_temperature;BMP_pressure;BME280_temperature;BME280_humidity;BME280_pressure;Samples;Min_cycle;Max_cycle;Signal;HPM_P1;HPM_P2
2021/10/11 00:01:05;;;;;;;14.93;7.40;;;10.60;99.90;;;;;;5096815;28;20054;-65
2021/10/11 00:03:31;;;;;;;16.10;8.25;;;10.60;99.90;;;;;;5078186;28;20461;-64
2021/10/11 00:05:57;;;;;;;17.77;8.32;;;10.50;99.90;;;;;;5096928;28;20383;-67
2021/10/11 00:08:23;;;;;;;18.77;8.38;;;10.50;99.90;;;;;;5096503;28;20028;-65
2021/10/11 00:10:51;;;;;;;18.95;7.95;;;10.40;99.90;;;;;;5096616;28;20107;-65
2021/10/11 00:13:19;;;;;;;16.85;8.00;;;10.40;99.90;;;;;;5096524;28;20028;-64
2021/10/11 00:15:45;;;;;;;17.55;8.25;;;10.40;99.90;;;;;;5077981;28;20051;-66
2021/10/11 00:18:12;;;;;;;23.50;8.45;;;10.40;99.90;;;;;;5078142;28;20040;-68
2021/10/11 00:20:38;;;;;;;14.05;8.55;;;10.40;99.90;;;;;;5096399;28;20024;-63
2021/10/11 00:23:04;;;;;;;15.95;8.32;;;10.30;99.90;;;;;;5096350;28;20039;-67
2021/10/11 00:25:29;;;;;;;16.83;8.95;;;10.30;99.90;;;;;;5096303;28;20042;-65
2021/10/11 00:27:55;;;;;;;13.75;8.70;;;10.30;99.90;;;;;;5096165;28;20050;-66
2021/10/11 00:30:21;;;;;;;18.02;8.98;;;10.30;99.90;;;;;;5077958;28;20056;-65
2021/10/11 00:32:47;;;;;;;16.67;9.60;;;10.30;99.90;;;;;;5077927;28;20028;-66
2021/10/11 00:35:13;;;;;;;15.70;9.07;;;10.30;99.90;;;;;;5096035;28;20417;-66
2021/10/11 00:37:39;;;;;;;13.13;8.85;;;10.30;99.90;;;;;;5095802;28;20384;-65
2021/10/11 00:40:07;;;;;;;16.58;9.57;;;10.30;99.90;;;;;;5077804;28;20028;-65
2021/10/11 00:42:33;;;;;;;20.63;9.88;;;10.30;99.90;;;;;;5095929;28;20024;-68
2021/10/11 00:44:59;;;;;;;14.85;8.88;;;10.30;99.90;;;;;;5077649;28;20499;-66
2021/10/11 00:47:25;;;;;;;21.48;11.15;;;10.30;99.90;;;;;;5095785;28;20058;-66
2021/10/11 00:49:51;;;;;;;23.13;9.65;;;10.30;99.90;;;;;;5095776;28;20095;-67
2021/10/11 00:52:17;;;;;;;20.63;9.60;;;10.30;99.90;;;;;;5094929;28;20468;-64
2021/10/11 00:54:44;;;;;;;16.98;10.07;;;10.30;99.90;;;;;;5095691;28;20032;-67
2021/10/11 00:57:10;;;;;;;21.98;10.27;;;10.30;99.90;;;;;;5095663;28;20047;-65
2021/10/11 00:59:36;;;;;;;17.73;10.75;;;10.30;99.90;;;;;;5095608;28;20031;-66
2021/10/11 01:02:02;;;;;;;16.40;9.70;;;10.30;99.90;;;;;;5095549;28;20028;-67
2021/10/11 01:04:29;;;;;;;22.80;11.13;;;10.30;99.90;;;;;;5077402;28;20073;-66
2021/10/11 01:06:54;;;;;;;19.42;9.60;;;10.30;99.90;;;;;;5077242;28;20464;-68
2021/10/11 01:09:20;;;;;;;22.13;10.15;;;10.30;99.90;;;;;;5095042;28;20032;-67
2021/10/11 01:11:50;;;;;;;23.08;10.57;;;10.30;99.90;;;;;;5077262;28;20082;-65
2021/10/11 01:14:17;;;;;;;22.30;11.07;;;10.30;99.90;;;;;;5095341;28;20024;-66
2021/10/11 01:16:43;;;;;;;21.90;11.15;;;10.30;99.90;;;;;;5073430;28;20052;-66
2021/10/11 01:19:10;;;;;;;28.77;12.52;;;10.30;99.90;;;;;;5075298;28;20058;-66
2021/10/11 01:21:36;;;;;;;24.67;11.40;;;10.20;99.90;;;;;;5073768;28;20055;-66
2021/10/11 01:24:02;;;;;;;20.50;11.43;;;10.20;99.90;;;;;;5073658;28;20052;-68
2021/10/11 01:26:40;;;;;;;18.42;11.90;;;10.20;99.90;;;;;;5074930;28;20058;-67
2021/10/11 01:29:08;;;;;;;21.70;10.82;;;10.20;99.90;;;;;;5074589;28;20036;-67
2021/10/11 01:31:34;;;;;;;28.27;11.35;;;10.20;99.90;;;;;;5074893;28;20380;-66
2021/10/11 01:34:01;;;;;;;17.10;11.40;;;10.20;99.90;;;;;;5074811;28;20039;-66
2021/10/11 01:36:29;;;;;;;20.23;11.70;;;10.10;99.90;;;;;;5074731;28;20449;-69
2021/10/11 01:38:57;;;;;;;26.15;13.23;;;10.20;99.90;;;;;;5074434;28;20045;-66
2021/10/11 01:41:23;;;;;;;27.20;13.93;;;10.10;99.90;;;;;;5074640;28;20098;-67
2021/10/11 01:43:50;;;;;;;24.33;12.95;;;10.20;99.90;;;;;;5074580;28;20102;-66
2021/10/11 01:46:16;;;;;;;19.70;12.20;;;10.10;99.90;;;;;;5074552;28;20154;-69
2021/10/11 01:48:42;;;;;;;26.80;12.68;;;10.10;99.90;;;;;;5074467;28;20062;-65
2021/10/11 01:51:08;;;;;;;24.70;12.75;;;10.10;99.90;;;;;;5074422;28;20021;-66
2021/10/11 01:53:34;;;;;;;25.83;12.35;;;10.10;99.90;;;;;;5074420;28;20027;-66
2021/10/11 01:56:00;;;;;;;23.77;12.93;;;10.00;99.90;;;;;;5073002;28;20021;-66
2021/10/11 01:58:31;;;;;;;18.85;11.93;;;10.00;99.90;;;;;;5074444;28;20081;-67
2021/10/11 02:01:00;;;;;;;20.77;11.05;;;10.00;99.90;;;;;;5072981;28;20423;-65
2021/10/11 02:03:26;;;;;;;25.75;12.68;;;10.00;99.90;;;;;;5074192;28;20032;-67
2021/10/11 02:05:52;;;;;;;22.63;12.52;;;10.00;99.90;;;;;;5072835;28;20062;-66
2021/10/11 02:08:18;;;;;;;23.92;12.68;;;10.00;99.90;;;;;;5074068;28;20032;-66
2021/10/11 02:10:44;;;;;;;23.58;12.00;;;10.00;99.90;;;;;;5074088;28;20024;-67
2021/10/11 02:13:10;;;;;;;21.65;12.35;;;10.00;99.90;;;;;;5074086;28;20103;-67
2021/10/11 02:15:36;;;;;;;24.75;11.95;;;10.00;99.90;;;;;;5076244;28;20420;-69
2021/10/11 02:18:02;;;;;;;24.90;12.63;;;10.00;99.90;;;;;;5094199;28;20024;-67
2021/10/11 02:20:29;;;;;;;21.27;12.27;;;9.90;99.90;;;;;;5075933;28;20471;-66
2021/10/11 02:22:55;;;;;;;22.23;12.27;;;10.00;99.90;;;;;;5094018;28;20115;-67
2021/10/11 02:25:21;;;;;;;23.45;12.63;;;9.90;99.90;;;;;;5075773;28;20548;-66
2021/10/11 02:27:47;;;;;;;21.02;12.80;;;9.90;99.90;;;;;;5075475;28;20060;-66
2021/10/11 02:30:13;;;;;;;21.60;12.68;;;9.90;99.90;;;;;;5075539;28;20376;-67
2021/10/11 02:32:41;;;;;;;22.88;11.98;;;9.90;99.90;;;;;;5093737;28;20034;-66
2021/10/11 02:35:08;;;;;;;27.15;13.15;;;9.80;99.90;;;;;;5093821;28;20028;-68
2021/10/11 02:37:34;;;;;;;29.70;13.35;;;9.90;99.90;;;;;;5094070;28;20484;-66
2021/10/11 02:39:59;;;;;;;24.02;12.48;;;9.80;99.90;;;;;;5093716;28;20024;-67
2021/10/11 02:42:25;;;;;;;22.05;12.35;;;9.80;99.90;;;;;;5094021;28;20042;-67
2021/10/11 02:44:53;;;;;;;26.52;12.90;;;9.80;99.90;;;;;;5093699;28;20027;-65
2021/10/11 02:47:23;;;;;;;23.17;12.73;;;9.80;99.90;;;;;;5093584;28;20527;-66
2021/10/11 02:49:49;;;;;;;25.17;12.90;;;9.80;99.90;;;;;;5093542;28;20460;-67
2021/10/11 02:52:15;;;;;;;20.85;12.70;;;9.80;99.90;;;;;;5093585;28;20024;-67
2021/10/11 02:54:43;;;;;;;28.10;13.88;;;9.80;99.90;;;;;;5093511;28;20028;-67
2021/10/11 02:57:09;;;;;;;24.55;14.07;;;9.70;99.90;;;;;;5074976;28;20127;-68
2021/10/11 02:59:35;;;;;;;20.85;12.80;;;9.70;99.90;;;;;;5075197;28;20118;-67
2021/10/11 03:02:01;;;;;;;22.20;12.73;;;9.70;99.90;;;;;;5093689;28;20028;-66
2021/10/11 03:04:27;;;;;;;23.23;12.52;;;9.70;99.90;;;;;;5075155;28;20063;-68
2021/10/11 03:06:53;;;;;;;20.10;11.48;;;9.70;99.90;;;;;;5075054;28;20059;-67
2021/10/11 03:09:19;;;;;;;28.13;12.82;;;9.70;99.90;;;;;;5093276;28;20032;-64
2021/10/11 03:11:45;;;;;;;30.70;13.20;;;9.70;99.90;;;;;;5093271;28;20028;-67
2021/10/11 03:14:11;;;;;;;22.98;13.73;;;9.70;99.90;;;;;;5093172;28;20029;-66
2021/10/11 03:16:37;;;;;;;28.63;12.82;;;9.70;99.90;;;;;;5071129;28;20132;-66
2021/10/11 03:19:03;;;;;;;27.42;13.10;;;9.70;99.90;;;;;;5073366;28;20420;-66
2021/10/11 03:21:31;;;;;;;22.05;12.38;;;9.60;99.90;;;;;;5073049;28;20028;-65
2021/10/11 03:23:57;;;;;;;29.23;13.73;;;9.60;99.90;;;;;;5073017;28;20112;-66
2021/10/11 03:26:23;;;;;;;23.13;12.70;;;9.60;99.90;;;;;;5072964;28;20513;-67
2021/10/11 03:28:49;;;;;;;25.70;12.38;;;9.60;99.90;;;;;;5071557;28;20040;-66
2021/10/11 03:31:15;;;;;;;22.98;12.68;;;9.60;99.90;;;;;;5072942;28;20099;-66
2021/10/11 03:33:41;;;;;;;23.90;11.60;;;9.50;99.90;;;;;;5072909;28;20025;-66
2021/10/11 03:36:08;;;;;;;24.63;12.93;;;9.50;99.90;;;;;;5072592;28;20025;-64
2021/10/11 03:38:34;;;;;;;20.65;12.40;;;9.50;99.90;;;;;;5072882;28;20047;-66
2021/10/11 03:41:00;;;;;;;24.35;12.07;;;9.50;99.90;;;;;;5072840;28;20477;-65
2021/10/11 03:43:26;;;;;;;28.65;12.15;;;9.60;99.90;;;;;;5072497;28;20052;-65
2021/10/11 03:45:54;;;;;;;28.42;12.82;;;9.60;99.90;;;;;;5072767;28;20028;-65
2021/10/11 03:48:21;;;;;;;21.85;11.27;;;9.60;99.90;;;;;;5072713;28;20159;-65
2021/10/11 03:50:47;;;;;;;22.23;11.90;;;9.60;99.90;;;;;;5072707;28;20031;-64
2021/10/11 03:53:14;;;;;;;21.05;12.45;;;9.60;99.90;;;;;;5071460;28;20028;-65
2021/10/11 03:55:43;;;;;;;29.75;11.77;;;9.50;99.90;;;;;;5072652;28;20423;-65
2021/10/11 03:58:09;;;;;;;23.83;12.52;;;9.60;99.90;;;;;;5072726;28;20035;-65
2021/10/11 04:00:36;;;;;;;25.75;11.40;;;9.60;99.90;;;;;;5072631;28;20056;-65
2021/10/11 04:03:04;;;;;;;25.05;11.80;;;9.60;99.90;;;;;;5072716;28;20540;-67
2021/10/11 04:05:30;;;;;;;27.15;12.00;;;9.60;99.90;;;;;;5072605;28;20491;-64
2021/10/11 04:08:00;;;;;;;23.90;12.10;;;9.60;99.90;;;;;;5072512;28;20048;-65
2021/10/11 04:10:30;;;;;;;20.13;12.65;;;9.50;99.90;;;;;;5072534;28;20033;-65
2021/10/11 04:13:05;;;;;;;18.25;11.27;;;9.50;99.90;;;;;;5072609;28;20033;-65
2021/10/11 04:15:31;;;;;;;19.35;12.32;;;9.50;99.90;;;;;;5074017;28;20024;-65
2021/10/11 04:17:57;;;;;;;25.63;12.52;;;9.50;99.90;;;;;;5092730;28;20036;-65
2021/10/11 04:20:23;;;;;;;21.42;12.25;;;9.50;99.90;;;;;;5092640;28;20426;-65
2021/10/11 04:22:49;;;;;;;22.98;11.70;;;9.50;99.90;;;;;;5092601;28;20406;-65
2021/10/11 04:25:15;;;;;;;25.55;12.40;;;9.40;99.90;;;;;;5074426;28;20024;-65
2021/10/11 04:27:41;;;;;;;22.65;11.60;;;9.50;99.90;;;;;;5076912;28;20092;-65
2021/10/11 04:30:08;;;;;;;20.58;11.80;;;9.50;99.90;;;;;;5095946;28;20361;-66
2021/10/11 04:32:34;;;;;;;23.95;12.93;;;9.40;99.90;;;;;;5077932;28;20031;-65
2021/10/11 04:35:00;;;;;;;21.73;12.15;;;9.40;99.90;;;;;;5077835;28;20483;-65
2021/10/11 04:37:26;;;;;;;19.13;11.13;;;9.40;99.90;;;;;;5096055;28;20027;-65
2021/10/11 04:39:52;;;;;;;23.13;12.60;;;9.50;99.90;;;;;;5096293;28;20024;-66
2021/10/11 04:42:19;;;;;;;17.98;11.63;;;9.40;99.90;;;;;;5077789;28;20071;-67
2021/10/11 04:44:45;;;;;;;36.65;15.05;;;9.40;99.90;;;;;;5095943;28;20292;-65
2021/10/11 04:47:11;;;;;;;23.75;12.02;;;9.40;99.90;;;;;;5096062;28;20042;-66
2021/10/11 04:49:37;;;;;;;26.08;11.98;;;9.30;99.90;;;;;;5077590;28;20106;-65
2021/10/11 04:52:03;;;;;;;17.77;11.63;;;9.40;99.90;;;;;;5077584;28;20031;-66
2021/10/11 04:54:29;;;;;;;30.40;13.93;;;9.40;99.90;;;;;;5077603;28;20028;-66
2021/10/11 04:56:55;;;;;;;25.42;13.52;;;9.30;99.90;;;;;;5095716;28;20096;-66
2021/10/11 04:59:21;;;;;;;25.23;13.20;;;9.30;99.90;;;;;;5095568;28;20444;-64
2021/10/11 05:01:47;;;;;;;25.02;13.38;;;;;;;;;;5095673;28;20481;-66
2021/10/11 05:04:14;;;;;;;24.83;13.52;;;;;;;;;;5077432;28;20063;-67
2021/10/11 05:06:40;;;;;;;23.17;13.43;;;;;;;;;;5095235;28;20564;-67
2021/10/11 05:09:06;;;;;;;21.08;12.35;;;;;;;;;;5095045;28;20399;-65
2021/10/11 05:11:32;;;;;;;28.80;14.55;;;;;;;;;;5095346;28;20025;-65
2021/10/11 05:13:59;;;;;;;31.10;13.57;;;;;;;;;;5095424;28;20027;-65
2021/10/11 05:16:26;;;;;;;26.83;13.95;;;;;;;;;;5094968;28;20510;-67
2021/10/11 05:18:53;;;;;;;33.10;13.77;;;;;;;;;;5077080;28;20123;-65
2021/10/11 05:21:21;;;;;;;26.23;13.52;;;;;;;;;;5077034;28;20047;-65
2021/10/11 05:23:47;;;;;;;27.83;14.00;;;;;;;;;;5095067;28;20479;-66
2021/10/11 05:26:14;;;;;;;26.42;14.38;;;;;;;;;;5095061;28;20107;-66
2021/10/11 05:28:40;;;;;;;32.35;19.25;;;;;;;;;;5076851;28;20059;-66
2021/10/11 05:31:07;;;;;;;26.00;14.85;;;;;;;;;;5094938;28;20039;-66
2021/10/11 05:33:34;;;;;;;23.90;13.35;;;;;;;;;;5094978;28;20032;-65
2021/10/11 05:36:01;;;;;;;26.50;14.43;;;;;;;;;;5094934;28;20478;-65
2021/10/11 05:38:27;;;;;;;28.88;14.27;;;;;;;;;;5094541;28;20495;-66
2021/10/11 05:40:55;;;;;;;27.65;14.63;;;;;;;;;;5094526;28;20401;-67
2021/10/11 05:43:22;;;;;;;25.30;14.65;;;;;;;;;;5094903;28;20027;-65
2021/10/11 05:45:48;;;;;;;29.55;15.55;;;;;;;;;;5076468;28;20032;-67
2021/10/11 05:48:15;;;;;;;24.67;14.52;;;;;;;;;;5094616;28;20043;-68
2021/10/11 05:50:41;;;;;;;26.35;15.27;;;;;;;;;;5094614;28;20027;-69
2021/10/11 05:53:08;;;;;;;34.85;19.27;;;;;;;;;;5094862;28;20034;-64
2021/10/11 05:55:34;;;;;;;27.67;17.23;;;;;;;;;;5094582;28;20506;-65
2021/10/11 05:58:00;;;;;;;26.90;15.43;;;;;;;;;;5094378;28;20036;-65
2021/10/11 06:00:27;;;;;;;26.42;16.60;;;;;;;;;;5084131;28;20046;-64
2021/10/11 06:02:53;;;;;;;31.88;16.23;;;;;;;;;;5113983;28;20043;-65
2021/10/11 06:05:19;;;;;;;26.17;15.32;;;;;;;;;;5114584;28;20115;-65
2021/10/11 06:07:46;;;;;;;28.50;17.15;;;;;;;;;;5114774;28;20035;-64
2021/10/11 06:10:12;;;;;;;32.13;16.65;;;;;;;;;;5114828;28;20460;-66
2021/10/11 06:12:38;;;;;;;31.92;17.02;;;;;;;;;;5096162;28;20028;-64
2021/10/11 06:15:05;;;;;;;30.17;16.52;;;;;;;;;;5114420;28;20104;-65
2021/10/11 06:17:31;;;;;;;27.45;15.40;;;;;;;;;;5096116;28;20056;-65
2021/10/11 06:19:57;;;;;;;27.80;15.55;;;;;;;;;;5075731;28;20032;-65
2021/10/11 06:22:23;;;;;;;35.80;17.15;;;;;;;;;;5093745;28;20017;-65
2021/10/11 06:24:50;;;;;;;29.55;15.45;;;;;;;;;;5093892;28;20407;-66
2021/10/11 06:27:16;;;;;;;27.27;15.05;;;;;;;;;;5093416;28;20039;-65
2021/10/11 06:29:42;;;;;;;31.17;15.63;;;;;;;;;;5093834;28;20469;-65
2021/10/11 06:32:08;;;;;;;25.10;14.48;;;;;;;;;;5075561;28;20439;-65
2021/10/11 06:34:34;;;;;;;26.73;15.27;;;;;;;;;;5092301;28;20111;-67
2021/10/11 06:37:00;;;;;;;29.30;15.38;;;;;;;;;;5105908;28;20098;-67
2021/10/11 06:39:27;;;;;;;30.10;15.23;;;;;;;;;;5113552;28;20104;-66
2021/10/11 06:41:53;;;;;;;33.38;16.58;;;;;;;;;;5095428;28;20383;-70
2021/10/11 06:44:19;;;;;;;38.05;24.70;;;;;;;;;;5113673;28;20038;-66
2021/10/11 06:46:46;;;;;;;36.60;18.85;;;;;;;;;;5113937;28;20464;-66
2021/10/11 06:49:12;;;;;;;42.50;22.25;;;9.60;99.90;;;;;;5113314;28;20486;-68
2021/10/11 06:51:38;;;;;;;26.40;15.23;;;9.70;99.90;;;;;;5113808;28;20032;-66
2021/10/11 06:54:04;;;;;;;34.63;20.45;;;9.60;99.90;;;;;;5113832;28;20119;-65
2021/10/11 06:56:29;;;;;;;28.15;15.85;;;9.70;99.90;;;;;;5111979;28;20023;-68
2021/10/11 06:58:55;;;;;;;29.70;15.98;;;9.70;99.90;;;;;;5093297;28;20032;-67
2021/10/11 07:01:21;;;;;;;30.23;15.40;;;9.70;99.90;;;;;;5093679;28;20365;-65
2021/10/11 07:03:47;;;;;;;28.27;15.32;;;9.80;99.90;;;;;;5093451;28;20028;-66
2021/10/11 07:06:47;;;;;;;37.15;20.42;;;9.80;99.90;;;;;;5093262;28;20024;-66
2021/10/11 07:09:13;;;;;;;24.88;16.73;;;9.80;99.90;;;;;;5093302;28;20389;-67
2021/10/11 07:11:38;;;;;;;28.08;15.65;;;9.80;99.90;;;;;;5093259;28;20036;-68
2021/10/11 07:14:04;;;;;;;24.42;15.18;;;9.80;99.90;;;;;;5093329;28;20392;-65
2021/10/11 07:16:31;;;;;;;23.02;14.40;;;9.80;99.90;;;;;;5071299;28;20052;-64
2021/10/11 07:18:58;;;;;;;38.78;16.33;;;9.80;99.90;;;;;;5072644;28;20053;-65
2021/10/11 07:21:24;;;;;;;33.00;19.25;;;9.80;99.90;;;;;;5072912;28;20039;-66
2021/10/11 07:23:50;;;;;;;31.55;17.08;;;9.80;99.90;;;;;;5073010;28;20028;-65
2021/10/11 07:26:16;;;;;;;31.50;16.33;;;9.90;99.90;;;;;;5073264;28;20068;-67
2021/10/11 07:28:42;;;;;;;27.35;15.70;;;9.90;99.90;;;;;;5071573;28;20078;-66
2021/10/11 07:31:08;;;;;;;28.80;17.05;;;10.00;99.90;;;;;;5072934;28;20031;-66
2021/10/11 07:33:33;;;;;;;25.33;14.52;;;10.00;99.90;;;;;;5073237;28;20033;-64
2021/10/11 07:36:05;;;;;;;35.00;17.23;;;10.00;99.90;;;;;;5071559;28;20060;-66
2021/10/11 07:38:31;;;;;;;29.98;16.80;;;10.10;99.90;;;;;;5071328;28;20029;-64
2021/10/11 07:40:57;;;;;;;27.25;16.48;;;10.20;99.90;;;;;;5072839;28;20036;-66
2021/10/11 07:43:24;;;;;;;26.85;15.95;;;10.20;99.90;;;;;;5072811;28;20031;-65
2021/10/11 07:45:49;;;;;;;27.17;14.93;;;10.30;99.90;;;;;;5071402;28;20036;-64
2021/10/11 07:48:15;;;;;;;26.95;15.25;;;10.30;99.90;;;;;;5072379;28;20037;-67
2021/10/11 07:50:42;;;;;;;29.55;17.73;;;10.30;99.90;;;;;;5072384;28;20377;-69
2021/10/11 07:53:07;;;;;;;32.75;17.58;;;10.30;99.90;;;;;;5072804;28;20515;-65
2021/10/11 07:55:33;;;;;;;29.48;17.92;;;10.30;99.90;;;;;;5071352;28;20060;-64
2021/10/11 07:57:59;;;;;;;29.60;17.40;;;10.40;99.90;;;;;;5072660;28;20031;-64
2021/10/11 08:00:26;;;;;;;46.63;26.10;;;10.40;99.90;;;;;;5073427;28;20453;-65
2021/10/11 08:02:51;;;;;;;38.50;22.98;;;10.40;99.90;;;;;;5075135;28;20031;-65
2021/10/11 08:05:17;;;;;;;33.80;20.83;;;10.40;99.90;;;;;;5076450;28;20028;-67
2021/10/11 08:07:44;;;;;;;40.00;22.80;;;10.50;99.90;;;;;;5076029;28;20064;-65
2021/10/11 08:10:11;;;;;;;30.20;17.23;;;10.40;99.90;;;;;;5076426;28;20025;-67
2021/10/11 08:12:37;;;;;;;30.55;19.50;;;10.50;99.90;;;;;;5076107;28;20060;-65
2021/10/11 08:15:04;;;;;;;29.55;18.27;;;10.50;99.90;;;;;;5076358;28;20029;-65
2021/10/11 08:17:30;;;;;;;37.75;21.48;;;10.50;99.90;;;;;;5093988;28;20048;-65
2021/10/11 08:19:56;;;;;;;29.10;19.42;;;10.60;99.90;;;;;;5096162;28;20484;-66
2021/10/11 08:22:23;;;;;;;27.38;18.70;;;10.60;99.90;;;;;;5078099;28;20020;-66
2021/10/11 08:24:51;;;;;;;33.10;18.95;;;10.60;99.90;;;;;;5096465;28;20024;-66
2021/10/11 08:27:18;;;;;;;26.90;18.08;;;10.70;99.90;;;;;;5096164;28;20024;-67
2021/10/11 08:29:51;;;;;;;25.67;16.35;;;10.80;99.90;;;;;;5096272;28;20055;-67
2021/10/11 08:32:17;;;;;;;32.17;18.02;;;10.80;99.90;;;;;;5096181;28;20028;-64
2021/10/11 08:34:43;;;;;;;26.02;17.00;;;10.80;99.90;;;;;;5096157;28;20024;-64
2021/10/11 08:37:09;;;;;;;28.92;16.80;;;10.90;99.90;;;;;;5077773;28;20126;-64
2021/10/11 08:39:36;;;;;;;29.27;16.48;;;10.80;99.90;;;;;;5096071;28;20035;-64
2021/10/11 08:42:04;;;;;;;29.52;17.23;;;10.90;99.90;;;;;;5096072;28;20024;-65
2021/10/11 08:44:31;;;;;;;26.65;15.88;;;10.90;99.90;;;;;;5096092;28;20059;-66
2021/10/11 08:46:56;;;;;;;27.17;16.77;;;10.80;99.90;;;;;;5077762;28;20495;-67
2021/10/11 08:49:23;;;;;;;29.23;15.95;;;10.80;99.90;;;;;;5095747;28;20040;-65
2021/10/11 08:51:48;;;;;;;30.05;16.85;;;10.80;99.90;;;;;;5093360;28;20024;-66
2021/10/11 08:54:16;;;;;;;32.00;16.58;;;10.80;99.90;;;;;;5095463;28;20103;-67
2021/10/11 08:56:42;;;;;;;34.33;18.02;;;10.80;99.90;;;;;;5095339;28;20031;-66
2021/10/11 08:59:08;;;;;;;33.72;18.65;;;10.90;99.90;;;;;;5098329;28;20489;-66
2021/10/11 09:01:35;;;;;;;31.85;17.92;;;10.90;99.90;;;;;;5087609;28;20032;-66
2021/10/11 09:04:18;;;;;;;32.55;17.38;;;10.90;99.90;;;;;;5095579;28;20027;-66
2021/10/11 09:07:02;;;;;;;29.63;16.00;;;10.80;99.90;;;;;;5095325;28;20036;-69
2021/10/11 09:09:28;;;;;;;28.80;17.70;;;10.80;99.90;;;;;;5099694;28;20391;-66
2021/10/11 09:11:54;;;;;;;29.35;17.13;;;10.80;99.90;;;;;;5112944;28;20027;-65
2021/10/11 09:14:22;;;;;;;32.50;17.75;;;10.80;99.90;;;;;;5097386;28;20031;-68
2021/10/11 09:17:03;;;;;;;29.45;17.27;;;10.90;99.90;;;;;;5115135;28;20074;-65
2021/10/11 09:19:33;;;;;;;;;;;10.90;99.90;;;;;;5116108;28;20043;-66
2021/10/11 09:21:59;;;;;;;28.63;17.42;;;10.90;99.90;;;;;;5115247;28;20040;-65
2021/10/11 09:24:25;;;;;;;30.83;17.42;;;10.90;99.90;;;;;;5115323;28;20114;-65
2021/10/11 09:26:54;;;;;;;31.02;16.50;;;10.90;99.90;;;;;;5088409;28;20026;-67
2021/10/11 09:29:33;;;;;;;32.25;17.65;;;10.90;99.90;;;;;;5105756;28;20463;-66
2021/10/11 09:32:02;;;;;;;26.58;16.95;;;10.90;99.90;;;;;;5097173;28;20042;-67
2021/10/11 09:34:27;;;;;;;34.83;18.80;;;10.90;99.90;;;;;;5115435;28;20459;-66
2021/10/11 09:37:02;;;;;;;35.42;21.88;;;11.00;99.90;;;;;;5115357;28;20079;-66
2021/10/11 09:39:31;;;;;;;33.97;19.20;;;11.00;99.90;;;;;;5096855;28;20554;-66
2021/10/11 09:41:59;;;;;;;31.85;20.17;;;11.00;99.90;;;;;;5095338;28;20680;-67
2021/10/11 09:44:25;;;;;;;28.92;17.20;;;11.00;99.90;;;;;;5095391;28;20028;-66
2021/10/11 09:46:56;;;;;;;31.67;17.50;;;11.00;99.90;;;;;;5114740;28;20027;-66
2021/10/11 09:49:24;;;;;;;34.55;20.23;;;11.10;99.90;;;;;;5114006;28;20024;-66
2021/10/11 09:51:55;;;;;;;32.08;19.35;;;11.20;99.90;;;;;;5115093;28;20375;-66
2021/10/11 09:54:23;;;;;;;33.45;19.08;;;11.20;99.90;;;;;;5115028;28;20020;-67
2021/10/11 09:56:49;;;;;;;31.92;18.95;;;11.20;99.90;;;;;;5114956;28;20024;-66
2021/10/11 09:59:16;;;;;;;27.13;17.65;;;11.20;99.90;;;;;;5114892;28;20177;-68
2021/10/11 10:01:45;;;;;;;30.73;19.02;;;11.30;99.90;;;;;;5114899;28;20019;-68
2021/10/11 10:04:29;;;;;;;30.77;19.85;;;11.20;99.90;;;;;;5114861;28;20020;-68
2021/10/11 10:07:00;;;;;;;29.67;18.60;;;11.30;99.90;;;;;;5114780;28;20028;-66
2021/10/11 10:09:28;;;;;;;26.05;15.77;;;11.20;99.90;;;;;;5114752;28;20039;-68
2021/10/11 10:11:56;;;;;;;30.88;17.50;;;11.20;99.90;;;;;;5096438;28;20481;-70
2021/10/11 10:14:24;;;;;;;30.08;18.92;;;11.20;99.90;;;;;;5114686;28;20583;-67
2021/10/11 10:16:52;;;;;;;33.42;19.05;;;11.20;99.90;;;;;;5092419;28;20048;-67
2021/10/11 10:19:18;;;;;;;28.45;18.73;;;11.20;99.90;;;;;;5094209;28;20073;-66
2021/10/11 10:21:45;;;;;;;29.52;18.25;;;11.20;99.90;;;;;;5092830;28;20031;-68
2021/10/11 10:24:22;;;;;;;32.85;18.80;;;11.20;99.90;;;;;;5093142;28;20107;-66
2021/10/11 10:26:48;;;;;;;34.00;17.58;;;11.20;99.90;;;;;;5094121;28;20021;-68
2021/10/11 10:29:18;;;;;;;34.38;19.35;;;11.20;99.90;;;;;;5093665;28;20028;-68
2021/10/11 10:31:45;;;;;;;37.63;19.02;;;11.20;99.90;;;;;;5092733;28;20028;-64
2021/10/11 10:34:23;;;;;;;27.60;17.88;;;11.20;99.90;;;;;;5093692;28;20032;-66
2021/10/11 10:37:08;;;;;;;29.80;16.42;;;11.20;99.90;;;;;;5092500;28;20025;-65
2021/10/11 10:39:48;;;;;;;23.95;16.00;;;11.20;99.90;;;;;;5092610;28;20024;-64
2021/10/11 10:42:30;;;;;;;34.90;18.63;;;11.20;99.90;;;;;;5092525;28;20031;-66
2021/10/11 10:44:57;;;;;;;;;;;11.10;99.90;;;;;;5094205;28;20052;-64
2021/10/11 10:47:40;;;;;;;64.82;29.17;;;11.10;99.90;;;;;;5092273;28;20362;-65
2021/10/11 10:50:20;;;;;;;85.20;32.65;;;11.10;99.90;;;;;;5092336;28;20451;-65
2021/10/11 10:52:58;;;;;;;97.25;33.58;;;11.00;99.90;;;;;;5093666;28;20085;-64
2021/10/11 10:55:24;;;;;;;64.18;26.02;;;11.10;99.90;;;;;;5093223;28;20589;-66
2021/10/11 10:58:01;;;;;;;65.13;25.52;;;11.10;99.90;;;;;;5093143;28;20506;-65
2021/10/11 11:00:27;;;;;;;36.55;22.10;;;11.10;99.90;;;;;;5093514;28;20051;-69
2021/10/11 11:02:54;;;;;;;34.55;19.88;;;11.00;99.90;;;;;;5093497;28;20016;-66
2021/10/11 11:05:23;;;;;;;66.63;32.22;;;11.10;99.90;;;;;;5093737;28;20031;-66
2021/10/11 11:07:52;;;;;;;44.30;21.02;;;11.10;99.90;;;;;;5093334;28;20036;-65
2021/10/11 11:10:27;;;;;;;28.25;15.82;;;11.10;99.90;;;;;;5093312;28;20046;-65
2021/10/11 11:12:59;;;;;;;28.80;16.48;;;11.10;99.90;;;;;;5092043;28;20423;-67
2021/10/11 11:15:31;;;;;;;30.10;17.45;;;11.10;99.90;;;;;;5093749;28;20044;-64
2021/10/11 11:17:58;;;;;;;32.15;17.25;;;11.10;99.90;;;;;;5095315;28;20063;-67
2021/10/11 11:20:29;;;;;;;27.45;15.75;;;11.10;99.90;;;;;;5113594;28;20126;-65
2021/10/11 11:23:04;;;;;;;31.88;17.98;;;11.10;99.90;;;;;;5113648;28;20031;-67
2021/10/11 11:25:35;;;;;;;33.15;16.85;;;11.10;99.90;;;;;;5113533;28;20068;-67
2021/10/11 11:28:06;;;;;;;34.72;16.23;;;11.20;99.90;;;;;;5113580;28;20029;-68
2021/10/11 11:30:32;;;;;;;31.08;17.55;;;11.20;99.90;;;;;;5095121;28;20415;-66
2021/10/11 11:33:09;;;;;;;34.05;17.90;;;11.20;99.90;;;;;;5113433;28;20062;-65
2021/10/11 11:35:44;;;;;;;34.78;17.58;;;11.20;99.90;;;;;;5114291;28;20020;-68
2021/10/11 11:38:12;;;;;;;29.20;16.35;;;11.20;99.90;;;;;;5099372;28;20031;-65
2021/10/11 11:40:41;;;;;;;31.95;16.95;;;11.20;99.90;;;;;;5117608;28;20028;-66
2021/10/11 11:43:09;;;;;;;31.20;17.33;;;11.20;99.90;;;;;;5114349;28;20074;-64
2021/10/11 11:45:46;;;;;;;34.28;20.15;;;11.10;99.90;;;;;;5105238;28;20464;-67
2021/10/11 11:48:28;;;;;;;40.00;22.38;;;11.00;99.90;;;;;;5097015;28;20429;-66
2021/10/11 11:50:59;;;;;;;42.55;24.25;;;11.00;99.90;;;;;;5093195;28;20085;-67
2021/10/11 11:53:27;;;;;;;35.03;21.92;;;11.00;99.90;;;;;;5096415;28;20035;-67
2021/10/11 11:55:54;;;;;;;27.27;19.13;;;11.00;99.90;;;;;;5094688;28;20031;-68
2021/10/11 11:58:29;;;;;;;28.98;16.73;;;11.00;99.90;;;;;;5093270;28;20028;-67
2021/10/11 12:00:57;;;;;;;25.80;15.63;;;11.00;99.90;;;;;;5077076;28;20048;-67
2021/10/11 12:03:25;;;;;;;28.40;17.05;;;11.00;99.90;;;;;;5095300;28;20024;-69
2021/10/11 12:05:54;;;;;;;29.52;17.92;;;11.10;99.90;;;;;;5095234;28;20032;-69
2021/10/11 12:08:20;;;;;;;33.35;19.52;;;11.10;99.90;;;;;;5095118;28;20028;-65
2021/10/11 12:11:03;;;;;;;36.25;21.17;;;11.20;99.90;;;;;;5096148;28;20039;-67
2021/10/11 12:13:38;;;;;;;27.75;16.88;;;11.20;99.90;;;;;;5078402;28;20030;-68
2021/10/11 12:16:31;;;;;;;29.90;19.05;;;11.20;99.90;;;;;;5107797;28;20066;-66
2021/10/11 12:19:04;;;;;;;34.92;19.17;;;11.30;99.90;;;;;;5091101;28;20051;-65
2021/10/11 12:21:38;;;;;;;36.00;18.48;;;11.30;99.90;;;;;;5078017;28;20039;-71
2021/10/11 12:24:13;;;;;;;35.95;21.70;;;11.30;99.90;;;;;;5096227;28;20032;-67
2021/10/11 12:26:53;;;;;;;33.85;20.73;;;11.20;99.90;;;;;;5096694;28;20062;-67
2021/10/11 12:29:20;;;;;;;34.47;21.08;;;11.30;99.90;;;;;;5096243;28;20032;-68
2021/10/11 12:32:08;;;;;;;34.10;20.90;;;11.40;99.90;;;;;;5077966;28;20039;-67
2021/10/11 12:34:37;;;;;;;29.08;19.08;;;11.30;99.90;;;;;;5077932;28;20149;-70
2021/10/11 12:37:11;;;;;;;30.35;19.52;;;11.30;99.90;;;;;;5077968;28;20380;-67
2021/10/11 12:39:42;;;;;;;34.50;19.17;;;11.20;99.90;;;;;;5095897;28;20422;-70
2021/10/11 12:42:15;;;;;;;32.42;18.10;;;11.20;99.90;;;;;;5096111;28;20024;-67
2021/10/11 12:44:46;;;;;;;25.50;15.63;;;11.10;99.90;;;;;;5095958;28;20032;-69
2021/10/11 12:47:26;;;;;;;22.30;14.90;;;11.10;99.90;;;;;;5094834;28;20020;-67
2021/10/11 12:49:59;;;;;;;27.60;15.63;;;11.00;99.90;;;;;;5077719;28;20032;-66